createdAt,value
2022-12-07T00:02:11.661Z,4.85
2022-12-07T00:05:08.985Z,5.53
2022-12-07T00:08:05.897Z,4.82
2022-12-07T00:11:19.734Z,5.22
2022-12-07T00:14:17.786Z,5.25
2022-12-07T00:17:14.642Z,5.93
2022-12-07T00:20:11.679Z,4.97
2022-12-07T00:23:08.537Z,5.00
2022-12-07T00:26:08.620Z,4.68
2022-12-07T00:29:13.963Z,5.47
2022-12-07T00:32:10.900Z,5.28
2022-12-07T00:35:08.269Z,4.68
2022-12-07T00:38:05.120Z,5.07
2022-12-07T00:41:20.267Z,5.00
2022-12-07T00:44:17.172Z,4.88
2022-12-07T00:47:14.050Z,6.03
2022-12-07T00:50:10.994Z,5.60
2022-12-07T00:53:07.901Z,6.70
2022-12-07T00:56:09.818Z,5.35
2022-12-07T00:59:06.771Z,6.82
2022-12-07T01:02:03.739Z,6.43
2022-12-07T01:05:00.562Z,6.38
2022-12-07T01:07:57.485Z,6.00
2022-12-07T01:11:07.621Z,6.20
2022-12-07T01:14:04.512Z,6.18
2022-12-07T01:17:01.421Z,6.13
2022-12-07T01:19:58.329Z,5.85
2022-12-07T01:22:55.281Z,5.88
2022-12-07T01:26:00.411Z,6.57
2022-12-07T01:28:59.954Z,6.40
2022-12-07T01:31:56.769Z,6.63
2022-12-07T01:34:54.056Z,6.35
2022-12-07T01:37:50.938Z,6.35
2022-12-07T01:40:57.068Z,6.72
2022-12-07T01:44:32.239Z,5.30
2022-12-07T01:47:29.436Z,7.63
2022-12-07T01:50:32.526Z,6.90
2022-12-07T01:53:31.442Z,7.40
2022-12-07T01:56:30.074Z,7.18
2022-12-07T01:59:27.568Z,5.40
2022-12-07T02:02:29.958Z,7.00
2022-12-07T02:05:28.329Z,6.47
2022-12-07T02:08:25.710Z,6.80
2022-12-07T02:11:22.877Z,6.05
2022-12-07T02:14:19.751Z,6.75
2022-12-07T02:17:55.906Z,5.90
2022-12-07T02:21:19.688Z,5.15
2022-12-07T02:24:49.585Z,10.10
2022-12-07T02:28:14.438Z,6.40
2022-12-07T02:31:22.757Z,6.95
2022-12-07T02:34:59.339Z,6.35
2022-12-07T02:38:36.027Z,5.88
2022-12-07T02:41:57.681Z,5.60
2022-12-07T02:44:54.812Z,5.82
2022-12-07T02:47:57.167Z,5.20
2022-12-07T02:50:55.761Z,5.68
2022-12-07T02:53:52.838Z,5.95
2022-12-07T02:57:08.056Z,5.05
2022-12-07T03:00:18.844Z,6.57
2022-12-07T03:03:16.565Z,5.65
2022-12-07T03:06:40.813Z,6.43
2022-12-07T03:10:04.974Z,5.68
2022-12-07T03:13:07.783Z,5.43
2022-12-07T03:16:28.324Z,5.30
2022-12-07T03:19:27.575Z,6.60
2022-12-07T03:22:24.866Z,6.28
2022-12-07T03:25:23.060Z,6.13
2022-12-07T03:28:25.048Z,6.20
2022-12-07T03:31:34.316Z,5.85
2022-12-07T03:35:13.140Z,6.55
2022-12-07T03:38:38.913Z,6.45
2022-12-07T03:41:42.219Z,6.53
2022-12-07T03:44:42.601Z,7.22
2022-12-07T03:47:51.827Z,7.55
2022-12-07T03:50:59.191Z,7.35
2022-12-07T03:54:15.313Z,7.72
2022-12-07T03:57:13.465Z,7.32
2022-12-07T04:00:13.271Z,7.13
2022-12-07T04:03:11.111Z,7.67
2022-12-07T04:06:08.079Z,6.95
2022-12-07T04:09:05.024Z,7.90
2022-12-07T04:12:02.161Z,8.60
2022-12-07T04:14:58.974Z,7.47
2022-12-07T04:17:55.961Z,7.22
2022-12-07T04:20:52.786Z,7.93
2022-12-07T04:23:49.620Z,8.18
2022-12-07T04:26:47.524Z,7.20
2022-12-07T04:29:44.416Z,8.25
2022-12-07T04:32:41.321Z,7.80
2022-12-07T04:35:38.146Z,7.93
2022-12-07T04:38:34.976Z,8.52
2022-12-07T04:41:31.891Z,7.07
2022-12-07T04:44:29.655Z,7.43
2022-12-07T04:47:26.497Z,7.15
2022-12-07T04:50:23.366Z,7.20
2022-12-07T04:53:20.345Z,7.15
2022-12-07T04:56:18.583Z,7.75
2022-12-07T04:59:17.504Z,5.28
2022-12-07T05:02:14.401Z,6.38
2022-12-07T05:05:11.341Z,6.40
2022-12-07T05:08:08.322Z,7.15
2022-12-07T05:11:07.269Z,7.25
2022-12-07T05:14:20.685Z,7.30
2022-12-07T05:17:17.953Z,7.13
2022-12-07T05:20:14.864Z,7.10
2022-12-07T05:23:12.051Z,7.03
2022-12-07T05:26:08.983Z,7.45
2022-12-07T05:29:06.378Z,7.75
2022-12-07T05:32:03.397Z,7.53
2022-12-07T05:35:00.257Z,8.73
2022-12-07T05:37:58.281Z,6.32
2022-12-07T05:40:55.092Z,6.88
2022-12-07T05:43:51.923Z,6.57
2022-12-07T05:46:48.814Z,5.03
2022-12-07T05:49:45.715Z,5.30
2022-12-07T05:52:42.598Z,5.88
2022-12-07T05:55:39.398Z,6.25
2022-12-07T05:58:55.304Z,5.07
2022-12-07T06:02:11.954Z,4.28
2022-12-07T06:05:09.048Z,4.43
2022-12-07T06:08:06.629Z,4.13
2022-12-07T06:11:21.892Z,4.43
2022-12-07T06:14:18.987Z,5.75
2022-12-07T06:17:16.653Z,5.40
2022-12-07T06:20:14.460Z,6.30
2022-12-07T06:23:11.390Z,5.97
2022-12-07T06:26:08.510Z,6.05
2022-12-07T06:29:05.706Z,8.38
2022-12-07T06:32:03.018Z,10.93
2022-12-07T06:35:00.911Z,13.27
2022-12-07T06:38:00.221Z,25.27
2022-12-07T06:40:57.089Z,22.35
2022-12-07T06:43:56.251Z,39.42
2022-12-07T06:47:12.202Z,64.65
2022-12-07T06:50:11.479Z,24.90
2022-12-07T06:53:10.075Z,10.32
2022-12-07T06:56:07.589Z,15.23
2022-12-07T06:59:07.317Z,17.05
2022-12-07T07:02:04.284Z,9.63
2022-12-07T07:05:01.213Z,4.60
2022-12-07T07:08:21.541Z,8.20
2022-12-07T07:11:14.982Z,6.60
2022-12-07T07:14:11.878Z,6.07
2022-12-07T07:17:08.991Z,5.22
2022-12-07T07:20:06.970Z,5.80
2022-12-07T07:23:04.029Z,3.63
2022-12-07T07:26:00.871Z,3.67
2022-12-07T07:28:57.718Z,3.78
2022-12-07T07:31:54.668Z,4.25
2022-12-07T07:34:51.616Z,4.97
2022-12-07T07:37:48.450Z,4.95
2022-12-07T07:40:45.349Z,4.75
2022-12-07T07:43:42.189Z,4.07
2022-12-07T07:46:39.114Z,4.93
2022-12-07T07:49:35.958Z,7.80
2022-12-07T07:52:33.042Z,5.18
2022-12-07T07:55:29.908Z,5.22
2022-12-07T07:58:28.777Z,4.43
2022-12-07T08:01:25.671Z,4.10
2022-12-07T08:04:22.789Z,5.07
2022-12-07T08:07:19.659Z,5.20
2022-12-07T08:10:16.546Z,4.20
2022-12-07T08:13:16.013Z,6.70
2022-12-07T08:16:13.138Z,6.25
2022-12-07T08:19:10.079Z,6.90
2022-12-07T08:22:06.895Z,8.30
2022-12-07T08:25:04.005Z,10.65
2022-12-07T08:28:01.624Z,6.97
2022-12-07T08:31:07.067Z,7.32
2022-12-07T08:34:04.313Z,6.93
2022-12-07T08:37:01.667Z,7.18
2022-12-07T08:39:58.557Z,8.68
2022-12-07T08:42:55.562Z,14.88
2022-12-07T08:46:22.578Z,21.42
2022-12-07T08:49:38.682Z,6.72
2022-12-07T08:52:36.959Z,5.90
2022-12-07T08:55:35.547Z,5.78
2022-12-07T08:58:34.985Z,6.97
2022-12-07T09:01:32.243Z,7.07
2022-12-07T09:04:29.266Z,8.55
2022-12-07T09:07:27.311Z,7.30
2022-12-07T09:10:24.526Z,8.07
2022-12-07T09:13:21.537Z,6.35
2022-12-07T09:16:18.549Z,8.48
2022-12-07T09:19:15.702Z,7.63
2022-12-07T09:22:12.825Z,7.32
2022-12-07T09:25:09.908Z,9.55
2022-12-07T09:28:07.120Z,8.02
2022-12-07T09:34:22.582Z,10.65
2022-12-07T09:37:19.560Z,9.48
2022-12-07T09:40:18.643Z,9.63
2022-12-07T09:43:24.952Z,9.15
2022-12-07T09:46:23.083Z,9.52
2022-12-07T09:49:24.992Z,8.30
2022-12-07T09:52:35.523Z,9.57
2022-12-07T09:55:37.106Z,7.97
2022-12-07T09:58:35.071Z,5.75
2022-12-07T10:01:35.412Z,5.90
2022-12-07T10:04:32.425Z,5.75
2022-12-07T10:07:30.343Z,5.57
2022-12-07T10:10:39.510Z,5.32
2022-12-07T10:13:50.070Z,4.40
2022-12-07T10:19:44.257Z,5.15
2022-12-07T10:23:00.773Z,5.30
2022-12-07T10:25:57.822Z,5.43
2022-12-07T10:28:55.482Z,5.68
2022-12-07T10:32:17.348Z,5.03
2022-12-07T10:35:28.027Z,6.32
2022-12-07T10:41:24.650Z,7.82
2022-12-07T10:44:28.350Z,8.93
2022-12-07T10:47:45.711Z,9.68
2022-12-07T10:51:11.339Z,7.30
2022-12-07T10:54:44.220Z,7.50
2022-12-07T10:57:43.940Z,8.40
2022-12-07T11:00:57.914Z,5.67
2022-12-07T11:04:00.575Z,5.88
2022-12-07T11:07:24.492Z,4.60
2022-12-07T11:10:40.538Z,4.60
2022-12-07T11:13:48.960Z,5.60
2022-12-07T11:16:58.726Z,5.55
2022-12-07T11:20:17.765Z,7.33
2022-12-07T11:23:54.544Z,5.03
2022-12-07T11:27:11.268Z,4.85
2022-12-07T11:30:23.647Z,6.03
2022-12-07T11:33:41.718Z,6.97
2022-12-07T11:36:44.883Z,8.55
2022-12-07T11:40:13.883Z,8.38
2022-12-07T11:43:35.558Z,12.00
2022-12-07T11:47:20.146Z,12.35
2022-12-07T11:50:43.546Z,7.75
2022-12-07T11:54:06.020Z,12.35
2022-12-07T11:57:20.390Z,6.90
2022-12-07T12:00:18.593Z,5.22
2022-12-07T12:03:31.285Z,4.45
2022-12-07T12:06:28.379Z,6.43
2022-12-07T12:09:41.806Z,23.38
2022-12-07T12:17:02.100Z,14.90
2022-12-07T12:20:27.352Z,3.40
2022-12-07T12:23:42.214Z,3.00
2022-12-07T12:26:40.135Z,2.97
2022-12-07T12:29:41.556Z,3.15
2022-12-07T12:32:45.097Z,3.83
2022-12-07T12:35:43.009Z,6.25
2022-12-07T12:39:09.103Z,5.72
2022-12-07T12:42:19.776Z,3.30
2022-12-07T12:45:19.560Z,3.00
2022-12-07T12:48:37.728Z,3.43
2022-12-07T12:51:40.829Z,3.53
2022-12-07T12:54:38.998Z,3.88
2022-12-07T12:57:37.267Z,3.63
2022-12-07T13:00:35.090Z,3.00
2022-12-07T13:03:35.166Z,3.00
2022-12-07T13:06:39.097Z,3.25
2022-12-07T13:09:37.236Z,3.45
2022-12-07T13:12:34.291Z,2.58
2022-12-07T13:15:53.131Z,3.15
2022-12-07T13:18:49.968Z,5.40
2022-12-07T13:21:46.822Z,6.45
2022-12-07T13:24:43.912Z,6.22
2022-12-07T13:27:44.901Z,5.03
2022-12-07T13:30:55.393Z,1.65
2022-12-07T13:33:52.315Z,1.45
2022-12-07T13:36:49.231Z,1.95
2022-12-07T13:40:00.886Z,1.40
2022-12-07T13:43:13.573Z,1.30
2022-12-07T13:46:18.157Z,1.50
2022-12-07T13:49:40.061Z,1.70
2022-12-07T13:52:46.044Z,2.55
2022-12-07T13:55:53.841Z,2.17
2022-12-07T13:58:51.549Z,1.80
2022-12-07T14:01:51.168Z,2.25
2022-12-07T14:04:51.970Z,2.33
2022-12-07T14:08:05.031Z,2.55
2022-12-07T14:11:02.322Z,7.13
2022-12-07T14:14:02.365Z,3.80
2022-12-07T14:17:17.115Z,2.58
2022-12-07T14:20:46.427Z,2.30
2022-12-07T14:23:43.727Z,2.45
2022-12-07T14:26:41.640Z,2.20
2022-12-07T14:29:39.062Z,2.60
2022-12-07T14:32:38.361Z,2.75
2022-12-07T14:35:35.299Z,5.22
2022-12-07T14:38:32.231Z,3.83
2022-12-07T14:41:48.338Z,3.92
2022-12-07T14:44:45.222Z,3.60
2022-12-07T14:54:21.774Z,16.20
2022-12-07T14:57:18.702Z,8.30
2022-12-07T15:00:18.107Z,4.15
2022-12-07T15:03:16.191Z,3.67
2022-12-07T15:06:16.857Z,2.58
2022-12-07T15:12:10.568Z,2.70
2022-12-07T15:15:08.081Z,3.05
2022-12-07T15:18:05.024Z,2.70
2022-12-07T15:21:01.892Z,3.88
2022-12-07T15:23:58.730Z,3.10
2022-12-07T15:26:55.671Z,2.80
2022-12-07T15:29:52.628Z,2.80
2022-12-07T15:32:53.857Z,3.63
2022-12-07T15:35:50.771Z,3.67
2022-12-07T15:39:13.139Z,2.55
2022-12-07T15:42:04.970Z,2.40
2022-12-07T15:45:05.109Z,2.50
2022-12-07T15:51:24.464Z,2.90
2022-12-07T15:54:25.196Z,3.63
2022-12-07T15:57:25.541Z,3.03
2022-12-07T16:00:22.778Z,3.60
2022-12-07T16:03:19.844Z,3.08
2022-12-07T16:06:19.017Z,3.60
2022-12-07T16:09:16.386Z,3.50
2022-12-07T16:12:14.564Z,3.50
2022-12-07T16:15:11.700Z,3.25
2022-12-07T16:18:08.629Z,3.28
2022-12-07T16:21:05.922Z,3.50
2022-12-07T16:24:06.192Z,3.47
2022-12-07T16:27:03.151Z,3.17
2022-12-07T16:30:00.103Z,4.85
2022-12-07T16:33:02.275Z,3.80
2022-12-07T16:36:00.119Z,3.72
2022-12-07T16:38:58.728Z,5.65
2022-12-07T16:41:55.825Z,6.65
2022-12-07T16:44:52.965Z,10.27
2022-12-07T16:47:49.978Z,9.00
2022-12-07T16:50:51.269Z,8.73
2022-12-07T16:53:48.630Z,4.43
2022-12-07T16:56:45.610Z,4.05
2022-12-07T16:59:42.535Z,4.30
2022-12-07T17:02:39.530Z,3.38
2022-12-07T17:05:42.490Z,3.90
2022-12-07T17:08:39.711Z,4.25
2022-12-07T17:11:37.347Z,5.38
2022-12-07T17:14:52.635Z,5.00
2022-12-07T17:17:56.962Z,4.65
2022-12-07T17:20:53.823Z,4.55
2022-12-07T17:23:51.786Z,5.10
2022-12-07T17:26:48.742Z,5.70
2022-12-07T17:29:45.681Z,5.00
2022-12-07T17:32:42.606Z,5.30
2022-12-07T17:35:39.757Z,6.47
2022-12-07T17:38:37.533Z,29.33
2022-12-07T17:41:52.770Z,18.80
2022-12-07T17:44:49.779Z,13.63
2022-12-07T17:47:46.673Z,23.00
2022-12-07T17:51:12.680Z,7.88
2022-12-07T17:54:10.647Z,7.40
2022-12-07T17:57:08.147Z,18.10
2022-12-07T18:00:07.404Z,5.95
2022-12-07T18:03:11.092Z,8.65
2022-12-07T18:06:08.085Z,5.90
2022-12-07T18:09:05.645Z,4.68
2022-12-07T18:12:03.578Z,7.82
2022-12-07T18:15:00.824Z,4.63
2022-12-07T18:17:57.827Z,4.53
2022-12-07T18:20:54.685Z,5.07
2022-12-07T18:23:54.952Z,4.68
2022-12-07T18:26:53.235Z,4.53
2022-12-07T18:29:54.145Z,6.93
2022-12-07T18:32:51.018Z,6.40
2022-12-07T18:35:48.705Z,9.98
2022-12-07T18:38:45.615Z,10.10
2022-12-07T18:41:43.352Z,8.00
2022-12-07T18:44:40.437Z,6.65
2022-12-07T18:47:37.480Z,6.63
2022-12-07T18:50:35.224Z,4.38
2022-12-07T18:53:33.480Z,5.22
2022-12-07T18:56:31.544Z,4.43
2022-12-07T18:59:46.342Z,4.32
2022-12-07T19:02:43.504Z,4.97
2022-12-07T19:05:40.423Z,4.40
2022-12-07T19:08:37.472Z,6.32
2022-12-07T19:11:49.167Z,4.97
2022-12-07T19:14:46.092Z,5.07
2022-12-07T19:17:43.624Z,6.10
2022-12-07T19:20:40.624Z,11.63
2022-12-07T19:23:37.531Z,6.35
2022-12-07T19:26:34.491Z,6.22
2022-12-07T19:29:31.634Z,7.25
2022-12-07T19:32:28.719Z,6.20
2022-12-07T19:35:25.643Z,9.15
2022-12-07T19:38:22.519Z,7.45
2022-12-07T19:41:34.273Z,7.97
2022-12-07T19:44:33.200Z,11.20
2022-12-07T19:47:30.167Z,7.25
2022-12-07T19:50:26.955Z,8.05
2022-12-07T19:53:23.782Z,7.68
2022-12-07T19:56:22.354Z,6.15
2022-12-07T19:59:22.226Z,8.20
2022-12-07T20:02:19.102Z,6.65
2022-12-07T20:05:15.979Z,7.00
2022-12-07T20:08:13.116Z,9.00
2022-12-07T20:11:29.471Z,6.13
2022-12-07T20:14:26.350Z,6.55
2022-12-07T20:17:23.236Z,8.13
2022-12-07T20:20:20.181Z,9.40
2022-12-07T20:23:17.003Z,7.25
2022-12-07T20:26:14.881Z,9.13
2022-12-07T20:29:17.980Z,6.55
2022-12-07T20:32:15.457Z,6.60
2022-12-07T20:35:12.298Z,6.85
2022-12-07T20:38:11.172Z,6.00
2022-12-07T20:41:31.230Z,8.27
2022-12-07T20:44:28.155Z,9.45
2022-12-07T20:47:25.001Z,9.30
2022-12-07T20:50:22.084Z,6.65
2022-12-07T20:53:19.242Z,6.55
2022-12-07T20:56:30.389Z,7.78
2022-12-07T20:59:27.343Z,6.82
2022-12-07T21:02:24.501Z,6.95
2022-12-07T21:05:21.452Z,6.25
2022-12-07T21:08:18.520Z,6.30
2022-12-07T21:11:17.613Z,7.20
2022-12-07T21:14:14.475Z,7.32
2022-12-07T21:17:12.001Z,7.82
2022-12-07T21:20:09.521Z,6.63
2022-12-07T21:23:06.390Z,6.85
2022-12-07T21:26:15.708Z,6.43
2022-12-07T21:29:12.611Z,7.53
2022-12-07T21:32:10.460Z,5.95
2022-12-07T21:35:07.839Z,6.80
2022-12-07T21:38:04.694Z,6.85
2022-12-07T21:41:15.439Z,7.47
2022-12-07T21:47:09.241Z,6.47
2022-12-07T21:50:07.102Z,7.72
2022-12-07T21:53:03.957Z,7.45
2022-12-07T21:56:01.025Z,7.30
2022-12-07T21:59:17.797Z,6.32
2022-12-07T22:02:14.949Z,7.07
2022-12-07T22:05:11.834Z,6.07
2022-12-07T22:08:08.782Z,6.63
2022-12-07T22:11:05.793Z,6.93
2022-12-07T22:14:22.761Z,7.50
2022-12-07T22:17:19.660Z,12.48
2022-12-07T22:20:19.253Z,7.00
2022-12-07T22:23:16.078Z,8.90
2022-12-07T22:26:18.657Z,7.05
2022-12-07T22:29:18.057Z,5.70
2022-12-07T22:32:46.570Z,6.25
2022-12-07T22:35:31.686Z,5.97
2022-12-07T22:38:28.769Z,5.82
2022-12-07T22:41:29.595Z,5.45
2022-12-07T22:44:26.504Z,6.90
2022-12-07T22:47:23.419Z,5.78
2022-12-07T22:50:20.291Z,5.75
2022-12-07T22:53:17.185Z,6.70
2022-12-07T22:56:14.324Z,6.72
2022-12-07T22:59:13.575Z,5.70
2022-12-07T23:02:10.460Z,5.82
2022-12-07T23:05:09.339Z,5.53
2022-12-07T23:08:06.266Z,8.02
2022-12-07T23:11:04.251Z,6.75
2022-12-07T23:14:02.275Z,6.68
2022-12-07T23:16:59.382Z,7.10
2022-12-07T23:19:56.529Z,6.35
2022-12-07T23:22:53.358Z,7.03
2022-12-07T23:25:50.252Z,6.60
2022-12-07T23:28:47.144Z,7.07
2022-12-07T23:31:44.076Z,7.60
2022-12-07T23:34:43.083Z,5.88
2022-12-07T23:37:39.903Z,7.75
2022-12-07T23:40:37.214Z,7.60
2022-12-07T23:43:36.132Z,7.65
2022-12-07T23:46:33.821Z,7.80
2022-12-07T23:49:30.716Z,6.95
2022-12-07T23:52:27.540Z,7.03
2022-12-07T23:55:24.376Z,6.78
2022-12-07T23:58:21.274Z,7.45
